Time;durP1;ratioP1;P1;durP2;ratioP2;P2;SDS_P1;SDS_P2;PMS_P1;PMS_P2;Temp;Humidity;BMP_temperature;BMP_pressure;BME280_temperature;BME280_humidity;BME280_pressure;Samples;Min_cycle;Max_cycle;Signal;HPM_P1;HPM_P2
2023/04/10 00:00:55;;;;;;;6.00;5.80;;;;;;;8.17;100.00;148098.41;5093510;28;20271;-63
2023/04/10 00:03:23;;;;;;;5.70;5.40;;;;;;;8.20;100.00;148105.97;5093514;28;20204;-61
2023/04/10 00:05:53;;;;;;;5.23;5.03;;;;;;;8.23;100.00;148114.78;5093459;28;20195;-62
2023/04/10 00:08:20;;;;;;;5.37;5.07;;;;;;;8.08;100.00;148075.69;5093361;28;20627;-62
2023/04/10 00:10:47;;;;;;;5.20;4.90;;;;;;;8.08;100.00;148076.97;5093269;28;20329;-61
2023/04/10 00:13:14;;;;;;;4.43;4.23;;;;;;;8.04;100.00;148065.59;5093330;28;20292;-62
2023/04/10 00:15:41;;;;;;;5.07;4.73;;;;;;;8.10;100.00;148080.75;5093101;28;20190;-62
2023/04/10 00:18:08;;;;;;;5.03;4.73;;;;;;;8.10;100.00;148080.75;5093323;28;20204;-61
2023/04/10 00:20:35;;;;;;;5.03;4.83;;;;;;;7.97;100.00;148047.97;5093057;28;20188;-61
2023/04/10 00:23:03;;;;;;;4.80;4.60;;;;;;;8.13;100.00;148089.59;5093152;28;20188;-62
2023/04/10 00:25:30;;;;;;;4.80;4.60;;;;;;;7.64;100.00;147967.22;5093048;28;20189;-63
2023/04/10 00:27:57;;;;;;;4.77;4.57;;;;;;;8.27;100.00;148124.88;5093052;28;20187;-62
2023/04/10 00:30:24;;;;;;;5.17;4.97;;;;;;;8.31;100.00;148133.81;5093275;28;20631;-63
2023/04/10 00:32:51;;;;;;;6.70;6.17;;;;;;;8.27;100.00;148123.66;5093217;28;20332;-63
2023/04/10 00:35:18;;;;;;;7.20;6.80;;;;;;;8.33;100.00;148138.81;5092821;28;20192;-63
2023/04/10 00:37:45;;;;;;;7.07;6.67;;;;;;;8.16;100.00;148097.13;5092761;28;20184;-61
2023/04/10 00:40:13;;;;;;;8.77;8.17;;;;;;;8.18;100.00;148100.94;5092704;28;20714;-62
2023/04/10 00:42:40;;;;;;;8.57;7.93;;;;;;;7.94;100.00;148041.63;5092682;28;20183;-61
2023/04/10 00:45:07;;;;;;;8.27;7.73;;;;;;;7.87;100.00;148023.97;5092878;28;20218;-62
2023/04/10 00:47:35;;;;;;;8.10;7.70;;;;;;;7.97;100.00;148049.22;5092530;28;20187;-62
2023/04/10 00:50:02;;;;;;;8.57;7.97;;;;;;;7.89;100.00;148027.78;5092888;28;20586;-61
2023/04/10 00:52:29;;;;;;;8.40;8.00;;;;;;;7.99;100.00;148054.25;5092858;28;20191;-62
2023/04/10 00:54:56;;;;;;;8.40;8.00;;;;;;;7.98;100.00;148050.44;5092476;28;20177;-61
2023/04/10 00:57:25;;;;;;;7.47;7.07;;;;;;;7.93;100.00;148039.13;5092760;28;20631;-61
2023/04/10 00:59:53;;;;;;;7.97;7.57;;;;;;;7.79;100.00;148005.06;5092559;28;20215;-61
2023/04/10 01:02:20;;;;;;;7.77;7.37;;;;;;;7.78;100.00;148002.53;5092636;28;20627;-62
2023/04/10 01:04:48;;;;;;;5.80;5.50;;;;;;;7.89;100.00;148029.06;5092180;28;20207;-63
2023/04/10 01:07:28;;;;;;;5.60;5.40;;;;;;;7.93;100.00;148039.13;5092530;28;20338;-62
2023/04/10 01:10:03;;;;;;;7.53;6.93;;;;;;;8.07;100.00;148073.16;5092475;28;20184;-62
2023/04/10 01:12:45;;;;;;;7.90;7.50;;;;;;;8.16;100.00;148097.13;5091955;28;20242;-61
2023/04/10 01:15:15;;;;;;;6.93;6.53;;;;;;;8.20;100.00;148105.97;5092193;28;20188;-62
2023/04/10 01:17:48;;;;;;;5.90;5.50;;;;;;;8.05;100.00;148068.13;5092431;28;20287;-62
2023/04/10 01:20:20;;;;;;;5.03;4.70;;;;;;;8.14;100.00;148092.13;5091403;28;20638;-61
2023/04/10 01:23:06;;;;;;;4.70;4.50;;;;;;;7.99;100.00;148052.97;5091969;28;20237;-62
2023/04/10 01:25:43;;;;;;;6.07;5.77;;;;;;;8.19;100.00;148103.44;5092021;28;20202;-62
2023/04/10 01:28:48;;;;;;;5.53;5.33;;;;;;;8.11;100.00;148083.25;5092230;28;20191;-62
2023/04/10 01:31:20;;;;;;;5.03;4.77;;;;;;;8.20;100.00;148107.22;5092153;28;20191;-62
2023/04/10 01:33:49;;;;;;;4.33;4.13;;;;;;;8.21;100.00;148108.50;5092266;28;20176;-63
2023/04/10 01:36:21;;;;;;;5.70;5.30;;;;;;;8.22;100.00;148111.03;5091781;28;20188;-62
2023/04/10 01:38:50;;;;;;;7.50;7.00;;;;;;;8.12;100.00;148085.78;5091952;28;20203;-63
2023/04/10 01:41:19;;;;;;;6.23;5.93;;;;;;;8.04;100.00;148066.88;5092077;28;20192;-63
2023/04/10 01:43:50;;;;;;;6.17;5.87;;;;;;;7.82;100.00;148012.63;5091604;28;20254;-63
2023/04/10 01:46:19;;;;;;;8.23;7.83;;;;;;;7.84;100.00;148015.16;5091701;28;20185;-62
2023/04/10 01:48:46;;;;;;;9.10;8.60;;;;;;;7.57;100.00;147948.31;5091493;28;20283;-62
2023/04/10 01:51:15;;;;;;;9.07;8.47;;;;;;;7.74;100.00;147992.44;5091560;28;20184;-63
2023/04/10 01:53:44;;;;;;;8.00;7.60;;;;;;;7.63;100.00;147964.72;5091192;28;20192;-61
2023/04/10 01:56:12;;;;;;;5.53;5.23;;;;;;;7.77;100.00;147998.75;5091567;28;20188;-61
2023/04/10 01:58:39;;;;;;;6.73;6.33;;;;;;;7.86;100.00;148021.44;5091819;28;20643;-62
2023/04/10 02:01:09;;;;;;;7.53;7.03;;;;;;;7.76;100.00;147997.53;5091550;28;20184;-62
2023/04/10 02:03:36;;;;;;;9.07;8.40;;;;;;;7.80;100.00;148007.59;5091661;28;20614;-62
2023/04/10 02:06:16;;;;;;;6.70;6.20;;;;;;;7.77;100.00;148000.00;5091801;28;20563;-61
2023/04/10 02:08:51;;;;;;;5.77;5.47;;;;;;;7.67;100.00;147973.56;5091432;28;20191;-63
2023/04/10 02:11:29;;;;;;;4.10;3.80;;;;;;;7.84;100.00;148015.16;5091599;28;20576;-61
2023/04/10 02:14:00;;;;;;;6.80;3.50;;;;;;;7.86;100.00;148020.19;5092054;28;20528;-62
2023/04/10 02:16:31;;;;;;;4.30;4.10;;;;;;;8.00;100.00;148055.50;5091413;28;20188;-61
2023/04/10 02:19:00;;;;;;;4.17;3.83;;;;;;;8.20;100.00;148105.97;5091878;28;20200;-62
2023/04/10 02:21:27;;;;;;;3.80;3.60;;;;;;;8.31;100.00;148133.81;5091660;28;20288;-62
2023/04/10 02:23:56;;;;;;;3.90;3.70;;;;;;;8.39;100.00;148152.72;5091571;28;20693;-62
2023/04/10 02:26:23;;;;;;;3.97;3.77;;;;;;;8.42;100.00;148161.53;5091378;28;20208;-60
2023/04/10 02:28:50;;;;;;;4.43;4.23;;;;;;;8.51;100.00;148184.25;5091273;28;20214;-62
2023/04/10 02:31:17;;;;;;;3.17;3.07;;;;;;;8.50;100.00;148181.72;5091690;28;20639;-62
2023/04/10 02:33:46;;;;;;;3.70;3.50;;;;;;;8.43;100.00;148162.81;5091282;28;20180;-62
2023/04/10 02:36:13;;;;;;;4.20;3.90;;;;;;;8.61;100.00;148208.25;5091542;28;20188;-62
2023/04/10 02:38:40;;;;;;;4.10;3.90;;;;;;;8.57;100.00;148198.16;5091455;28;20554;-62
2023/04/10 02:41:07;;;;;;;5.47;5.27;;;;;;;8.70;100.00;148230.91;5091596;28;20184;-61
2023/04/10 02:43:33;;;;;;;10.50;9.43;;;;;;;8.77;100.00;148248.63;5091227;28;20192;-62
2023/04/10 02:46:00;;;;;;;10.83;9.93;;;;;;;8.67;100.00;148224.63;5091183;28;20192;-62
2023/04/10 02:48:27;;;;;;;19.07;12.23;;;;;;;8.54;100.00;148191.81;5091413;28;20206;-66
2023/04/10 02:50:57;;;;;;;18.40;10.90;;;;;;;8.35;100.00;148143.88;5091138;28;20185;-62
2023/04/10 02:53:25;;;;;;;17.63;11.77;;;;;;;8.39;100.00;148153.97;5091412;28;20685;-62
2023/04/10 02:55:53;;;;;;;25.60;11.37;;;;;;;8.29;100.00;148128.72;5091038;28;20183;-62
2023/04/10 02:58:20;;;;;;;27.07;11.90;;;;;;;8.22;100.00;148111.03;5090927;28;20237;-63
2023/04/10 03:00:49;;;;;;;23.93;13.60;;;;;;;8.11;100.00;148083.25;5091021;28;20199;-64
2023/04/10 03:03:16;;;;;;;25.03;13.10;;;;;;;8.09;100.00;148078.22;5091576;28;20628;-61
2023/04/10 03:05:45;;;;;;;24.40;12.43;;;;;;;8.01;100.00;148059.31;5094464;28;20214;-63
2023/04/10 03:08:14;;;;;;;21.30;10.00;;;;;;;8.14;100.00;148090.84;5094576;28;20199;-62
2023/04/10 03:10:42;;;;;;;26.50;12.17;;;;;;;8.10;100.00;148080.75;5094557;28;20223;-61
2023/04/10 03:13:09;;;;;;;9.70;8.77;;;;;;;8.10;100.00;148082.03;5094408;28;20675;-62
2023/04/10 03:15:36;;;;;;;28.30;10.73;;;;;;;8.19;100.00;148104.69;5094884;28;20749;-63
2023/04/10 03:18:04;;;;;;;17.20;11.40;;;;;;;8.17;100.00;148099.69;5094889;28;20295;-62
2023/04/10 03:20:31;;;;;;;32.77;12.90;;;;;;;8.16;100.00;148095.88;5094719;28;20180;-62
2023/04/10 03:22:58;;;;;;;24.30;13.17;;;;;;;7.95;100.00;148042.91;5094404;28;20199;-63
2023/04/10 03:25:26;;;;;;;28.80;13.03;;;;;;;8.02;100.00;148060.59;5094464;28;20234;-61
2023/04/10 03:27:53;;;;;;;32.23;13.13;;;;;;;7.67;100.00;147974.81;5094382;28;20294;-62
2023/04/10 03:30:20;;;;;;;14.20;9.47;;;;;;;8.04;100.00;148065.59;5094051;28;20191;-62
2023/04/10 03:32:47;;;;;;;7.97;7.43;;;;;;;7.93;100.00;148037.88;5094237;28;20283;-62
2023/04/10 03:35:14;;;;;;;8.27;7.03;;;;;;;8.12;100.00;148085.78;5094116;28;20199;-61
2023/04/10 03:37:42;;;;;;;7.07;6.67;;;;;;;8.25;100.00;148118.59;5094033;28;20237;-62
2023/04/10 03:40:10;;;;;;;6.90;6.40;;;;;;;8.35;100.00;148142.63;5094298;28;20619;-61
2023/04/10 03:42:38;;;;;;;8.07;7.47;;;;;;;8.15;100.00;148094.59;5094138;28;20191;-62
2023/04/10 03:45:06;;;;;;;6.50;6.20;;;;;;;8.47;100.00;148174.16;5093763;28;20203;-62
2023/04/10 03:47:34;;;;;;;7.17;6.77;;;;;;;8.45;100.00;148169.09;5093773;28;20223;-62
2023/04/10 03:50:01;;;;;;;6.20;5.90;;;;;;;8.55;100.00;148194.34;5093807;28;20279;-62
2023/04/10 03:52:28;;;;;;;5.97;5.67;;;;;;;8.67;100.00;148224.63;5093723;28;20184;-62
2023/04/10 03:54:55;;;;;;;8.07;7.30;;;;;;;8.66;100.00;148222.09;5093654;28;20191;-62
2023/04/10 03:57:22;;;;;;;7.00;6.60;;;;;;;8.73;100.00;148237.25;5093572;28;20237;-62
2023/04/10 03:59:50;;;;;;;6.87;6.47;;;;;;;8.84;100.00;148265.00;5093528;28;20185;-62
2023/04/10 04:02:17;;;;;;;10.03;6.53;;;;;;;8.71;100.00;148233.47;5093829;28;20184;-62
2023/04/10 04:04:44;;;;;;;6.80;6.40;;;;;;;8.86;100.00;148270.09;5093541;28;20204;-62
2023/04/10 04:07:12;;;;;;;6.63;6.33;;;;;;;9.08;100.00;148325.63;5093610;28;20177;-62
2023/04/10 04:09:39;;;;;;;6.50;6.20;;;;;;;8.97;100.00;148297.84;5093703;28;20651;-62
2023/04/10 04:12:07;;;;;;;6.10;5.80;;;;;;;9.08;100.00;148325.63;5093104;28;20325;-62
2023/04/10 04:14:34;;;;;;;5.80;5.60;;;;;;;9.25;100.00;148367.31;5093337;28;20548;-61
2023/04/10 04:17:02;;;;;;;6.10;5.83;;;;;;;9.07;100.00;148324.38;5092953;28;20677;-62
2023/04/10 04:19:29;;;;;;;6.57;6.27;;;;;;;9.37;100.00;148398.88;5093259;28;20207;-63
2023/04/10 04:21:56;;;;;;;6.20;5.73;;;;;;;9.53;100.00;148439.28;5093133;28;20191;-62
2023/04/10 04:24:23;;;;;;;6.57;6.27;;;;;;;9.58;100.00;148450.66;5092262;28;20226;-62
2023/04/10 04:26:50;;;;;;;6.47;6.13;;;;;;;9.63;100.00;148464.50;5093381;28;20188;-62
2023/04/10 04:29:17;;;;;;;6.33;5.83;;;;;;;9.70;100.00;148480.94;5092988;28;20192;-62
2023/04/10 04:31:44;;;;;;;5.70;5.50;;;;;;;9.79;100.00;148503.69;5093168;28;20683;-63
2023/04/10 04:34:12;;;;;;;6.23;5.93;;;;;;;9.89;100.00;148528.94;5093189;28;20571;-61
2023/04/10 04:36:39;;;;;;;7.37;6.77;;;;;;;9.90;100.00;148531.47;5093096;28;20275;-62
2023/04/10 04:39:06;;;;;;;9.50;8.63;;;;;;;9.70;100.00;148480.94;5092802;28;20192;-63
2023/04/10 04:41:32;;;;;;;7.67;6.93;;;;;;;9.98;100.00;148551.69;5092718;28;20187;-62
2023/04/10 04:44:01;;;;;;;6.43;5.90;;;;;;;10.07;100.00;148573.16;5093233;28;20607;-62
2023/04/10 04:46:28;;;;;;;11.70;7.10;;;;;;;10.00;100.00;148555.50;5092930;28;20212;-62
2023/04/10 04:48:55;;;;;;;8.40;7.57;;;;;;;10.08;100.00;148576.97;5092811;28;20192;-62
2023/04/10 04:51:23;;;;;;;8.93;7.83;;;;;;;10.21;100.00;148608.59;5092812;28;20192;-61
2023/04/10 04:53:50;;;;;;;7.90;7.10;;;;;;;10.35;100.00;148644.00;5092439;28;20184;-62
2023/04/10 04:56:16;;;;;;;8.80;8.00;;;;;;;10.49;100.00;148678.09;5092299;28;20184;-61
2023/04/10 04:58:43;;;;;;;9.53;8.20;;;;;;;10.70;100.00;148729.91;5092867;28;20604;-61
2023/04/10 05:01:11;;;;;;;11.13;8.10;;;;;;;10.78;100.00;148750.13;5092752;28;20184;-64
2023/04/10 05:03:38;;;;;;;8.33;7.43;;;;;;;10.77;100.00;148747.66;5092758;28;20195;-62
2023/04/10 05:06:05;;;;;;;8.23;7.17;;;;;;;10.82;100.00;148760.31;5092432;28;20674;-62
2023/04/10 05:08:33;;;;;;;8.87;6.97;;;;;;;10.93;100.00;148788.09;5092660;28;20194;-62
2023/04/10 05:11:00;;;;;;;8.63;7.77;;;;;;;10.97;100.00;148799.47;5092459;28;20584;-62
2023/04/10 05:13:27;;;;;;;8.23;7.43;;;;;;;11.01;100.00;148808.31;5092310;28;20184;-62
2023/04/10 05:15:54;;;;;;;7.40;7.03;;;;;;;10.97;100.00;148798.22;5092067;28;20180;-62
2023/04/10 05:18:22;;;;;;;8.20;7.57;;;;;;;10.98;100.00;148800.75;5091880;28;20196;-63
2023/04/10 05:20:49;;;;;;;9.73;8.17;;;;;;;11.09;100.00;148828.56;5092206;28;20524;-62
2023/04/10 05:23:16;;;;;;;8.87;7.97;;;;;;;10.96;100.00;148796.94;5092367;28;20650;-62
2023/04/10 05:25:44;;;;;;;15.47;8.10;;;;;;;11.28;100.00;148875.38;5092132;28;20223;-61
2023/04/10 05:28:11;;;;;;;12.17;7.80;;;;;;;11.36;100.00;148895.59;5092082;28;20200;-63
2023/04/10 05:30:38;;;;;;;7.90;7.27;;;;;;;11.38;100.00;148901.91;5091536;28;20184;-63
2023/04/10 05:33:05;;;;;;;7.20;6.90;;;;;;;11.48;100.00;148924.69;5091426;28;20184;-63
2023/04/10 05:35:32;;;;;;;13.97;8.87;;;;;;;11.52;100.00;148936.06;5090586;28;20184;-62
2023/04/10 05:37:59;;;;;;;14.50;12.33;;;;;;;11.72;100.00;148985.44;5091702;28;20633;-60
2023/04/10 05:40:26;;;;;;;10.00;9.30;;;;;;;11.62;100.00;148961.38;5091884;28;20275;-58
2023/04/10 05:42:55;;;;;;;10.03;9.33;;;;;;;11.75;100.00;148994.28;5091285;28;20184;-59
2023/04/10 05:45:22;;;;;;;13.27;9.37;;;;;;;11.71;100.00;148982.88;5091183;28;20208;-59
2023/04/10 05:47:49;;;;;;;8.23;7.77;;;;;;;11.94;100.00;149039.84;5091300;28;20191;-59
2023/04/10 05:50:15;;;;;;;9.30;8.67;;;;;;;12.09;100.00;149077.84;5091356;28;20527;-58
2023/04/10 05:52:42;;;;;;;15.70;8.77;;;;;;;12.23;100.00;149114.50;5091046;28;20275;-63
2023/04/10 05:55:10;;;;;;;9.80;8.93;;;;;;;12.20;100.00;149106.94;5091533;28;20184;-63
2023/04/10 05:57:36;;;;;;;8.70;8.17;;;;;;;12.41;100.00;149157.56;5091673;28;20202;-63
2023/04/10 06:00:06;;;;;;;11.73;9.90;;;;;;;12.50;100.00;149180.34;5091494;28;20192;-64
2023/04/10 06:02:34;;;;;;;12.03;11.03;;;;;;;12.42;100.00;149160.09;5091218;28;20188;-63
2023/04/10 06:05:02;;;;;;;8.67;8.27;;;;;;;12.26;100.00;149122.09;5091213;28;20204;-65
2023/04/10 06:07:31;;;;;;;9.50;8.70;;;;;;;12.34;100.00;149142.41;5091300;28;20199;-64
2023/04/10 06:09:58;;;;;;;11.53;10.47;;;;;;;12.39;100.00;149152.50;5089907;28;20194;-64
2023/04/10 06:12:24;;;;;;;10.97;9.93;;;;;;;12.48;100.00;149175.25;5090968;28;20236;-64
2023/04/10 06:14:51;;;;;;;16.60;9.60;;;;;;;12.67;100.00;149223.41;5091174;28;20188;-64
2023/04/10 06:17:20;;;;;;;14.47;9.20;;;;;;;12.75;100.00;149243.66;5091173;28;20196;-63
2023/04/10 06:19:47;;;;;;;8.67;7.87;;;;;;;12.81;100.00;149258.88;5091211;28;20195;-63
2023/04/10 06:22:14;;;;;;;10.20;7.60;;;;;;;12.88;100.00;149275.31;5091516;28;20249;-63
2023/04/10 06:24:41;;;;;;;9.90;7.87;;;;;;;12.95;100.00;149293.03;5090945;28;20199;-64
2023/04/10 06:27:08;;;;;;;10.00;8.30;;;;;;;13.07;100.00;149323.44;5091094;28;20204;-63
2023/04/10 06:29:35;;;;;;;8.80;8.20;;;;;;;13.17;100.00;149350.06;5091001;28;20195;-64
2023/04/10 06:32:03;;;;;;;13.90;8.87;;;;;;;13.18;100.00;149351.34;5091199;28;20554;-64
2023/04/10 06:34:31;;;;;;;12.67;8.67;;;;;;;13.16;100.00;149346.25;5091581;28;20196;-63
2023/04/10 06:36:58;;;;;;;21.43;8.27;;;;;;;13.32;100.00;149386.84;5091064;28;20181;-64
2023/04/10 06:39:25;;;;;;;8.50;7.90;;;;;;;13.31;100.00;149383.00;5093233;28;20192;-64
2023/04/10 06:41:56;;;;;;;8.00;7.60;;;;;;;13.52;100.00;149436.22;5095317;28;20194;-63
2023/04/10 06:44:23;;;;;;;8.07;7.30;;;;;;;13.38;100.00;149400.72;5094988;28;20351;-65
2023/04/10 06:46:50;;;;;;;7.20;6.87;;;;;;;13.19;100.00;149353.91;5094244;28;20598;-64
2023/04/10 06:49:17;;;;;;;8.57;7.70;;;;;;;12.95;100.00;149294.28;5094615;28;20191;-64
2023/04/10 06:51:47;;;;;;;7.10;6.80;;;;;;;12.65;100.00;149218.31;5094584;28;20195;-64
2023/04/10 06:54:13;;;;;;;8.27;7.53;;;;;;;12.46;100.00;149171.50;5094974;28;20573;-65
2023/04/10 06:56:41;;;;;;;7.43;7.13;;;;;;;12.63;100.00;149214.53;5095072;28;20195;-64
2023/04/10 06:59:10;;;;;;;7.30;6.90;;;;;;;12.59;100.00;149204.41;5094785;28;20195;-65
2023/04/10 07:01:37;;;;;;;7.67;7.27;;;;;;;12.60;100.00;149205.69;5093079;28;20193;-63
2023/04/10 07:04:04;;;;;;;8.53;8.03;;;;;;;12.91;100.00;149284.16;5093890;28;20508;-62
2023/04/10 07:06:31;;;;;;;8.00;7.60;;;;;;;13.01;100.00;149309.50;5093695;28;20200;-63
2023/04/10 07:08:59;;;;;;;7.70;7.23;;;;;;;13.01;100.00;149308.25;5094026;28;20286;-62
2023/04/10 07:11:26;;;;;;;7.37;7.07;;;;;;;12.93;100.00;149287.97;5093768;28;20231;-62
2023/04/10 07:13:57;;;;;;;8.47;8.00;;;;;;;12.64;100.00;149215.81;5093859;28;20191;-62
2023/04/10 07:16:25;;;;;;;6.93;6.53;;;;;;;12.71;100.00;149233.53;5076441;28;20227;-62
2023/04/10 07:18:51;;;;;;;7.00;6.60;;;;;;;12.92;100.00;149285.44;5094268;28;20243;-63
2023/04/10 07:21:18;;;;;;;7.30;6.80;;;;;;;12.85;100.00;149267.72;5094117;28;20191;-65
2023/04/10 07:23:46;;;;;;;7.57;7.17;;;;;;;13.17;100.00;149350.06;5094518;28;20237;-62
2023/04/10 07:26:15;;;;;;;7.93;7.43;;;;;;;13.57;100.00;149448.91;5093154;28;20212;-63
2023/04/10 07:28:42;;;;;;;7.77;7.13;;;;;;;13.88;100.00;149527.44;5094557;28;20195;-63
2023/04/10 07:31:09;;;;;;;7.30;6.73;;;;;;;14.09;100.00;149579.41;5093962;28;20188;-62
2023/04/10 07:33:36;;;;;;;6.80;6.40;;;;;;;14.31;100.00;149633.91;5094265;28;20623;-62
2023/04/10 07:36:04;;;;;;;7.20;6.80;;;;;;;14.55;100.00;149694.84;5094041;28;20571;-62
2023/04/10 07:38:31;;;;;;;9.37;7.33;;;;;;;14.78;100.00;149751.88;5093475;28;20226;-62
2023/04/10 07:40:59;;;;;;;6.77;6.47;;;;;;;14.51;100.00;149685.94;5093936;28;20191;-61
2023/04/10 07:43:27;;;;;;;6.17;5.87;;;;;;;14.13;100.00;149590.81;5093752;28;20180;-63
2023/04/10 07:45:54;;;;;;;6.77;6.47;;;;;;;14.41;100.00;149659.34;5094106;28;20208;-63
2023/04/10 07:48:21;;;;;;;5.97;5.63;;;;;;;14.03;100.00;149565.50;5094011;28;20487;-62
2023/04/10 07:50:48;;;;;;;6.37;6.07;;;;;;;14.01;100.00;149559.13;5092141;28;20195;-63
2023/04/10 07:53:15;;;;;;;7.10;6.60;;;;;;;14.01;100.00;149560.41;5092640;28;20192;-63
2023/04/10 07:55:43;;;;;;;7.63;7.23;;;;;;;14.07;100.00;149574.34;5094021;28;20188;-62
2023/04/10 07:58:10;;;;;;;6.80;6.30;;;;;;;14.13;100.00;149590.81;5093393;28;20199;-64
2023/04/10 08:00:38;;;;;;;6.83;6.53;;;;;;;13.90;100.00;149532.53;5093625;28;20199;-63
2023/04/10 08:03:06;;;;;;;11.23;6.83;;;;;;;13.59;100.00;149455.22;5092882;28;20607;-62
2023/04/10 08:05:33;;;;;;;7.20;6.80;;;;;;;13.37;100.00;149399.47;5092921;28;20253;-63
2023/04/10 08:08:00;;;;;;;10.43;6.73;;;;;;;13.58;100.00;149451.41;5092601;28;20223;-63
2023/04/10 08:10:26;;;;;;;6.90;6.33;;;;;;;13.62;100.00;149461.59;5092940;28;20199;-62
2023/04/10 08:12:53;;;;;;;6.43;6.13;;;;;;;13.59;100.00;149455.22;5092334;28;20311;-63
2023/04/10 08:15:20;;;;;;;7.77;6.07;;;;;;;13.66;100.00;149471.72;5092304;28;20234;-63
2023/04/10 08:17:48;;;;;;;5.77;5.47;;;;;;;13.72;100.00;149488.16;5092410;28;20203;-63
2023/04/10 08:20:15;;;;;;;7.30;6.83;;;;;;;13.74;100.00;149492.00;5092644;28;20184;-63
2023/04/10 08:22:44;;;;;;;6.83;6.33;;;;;;;13.79;100.00;149504.63;5092480;28;20188;-63
2023/04/10 08:25:11;;;;;;;6.07;5.80;;;;;;;13.79;100.00;149504.63;5092764;28;20180;-64
2023/04/10 08:27:38;;;;;;;6.47;5.97;;;;;;;13.61;100.00;149460.31;5092108;28;20218;-63
2023/04/10 08:30:07;;;;;;;7.53;6.83;;;;;;;13.57;100.00;149448.91;5093080;28;20180;-64
2023/04/10 08:32:34;;;;;;;7.27;6.73;;;;;;;13.63;100.00;149465.34;5093333;28;20192;-63
2023/04/10 08:35:02;;;;;;;6.30;6.00;;;;;;;13.72;100.00;149486.91;5092212;28;20647;-62
2023/04/10 08:37:29;;;;;;;6.33;5.93;;;;;;;13.57;100.00;149448.91;5092091;28;20176;-63
2023/04/10 08:39:57;;;;;;;6.53;6.20;;;;;;;13.27;100.00;149374.16;5092935;28;20188;-63
2023/04/10 08:42:26;;;;;;;7.03;6.53;;;;;;;13.27;100.00;149375.44;5093270;28;20246;-63
2023/04/10 08:44:53;;;;;;;7.43;7.00;;;;;;;13.09;100.00;149329.78;5092812;28;20184;-63
2023/04/10 08:47:21;;;;;;;8.20;7.60;;;;;;;13.12;100.00;149336.13;5092938;28;20211;-62
2023/04/10 08:49:54;;;;;;;8.53;8.13;;;;;;;13.41;100.00;149409.59;5092569;28;20180;-62
2023/04/10 08:52:24;;;;;;;8.20;7.70;;;;;;;13.45;100.00;149419.72;5092630;28;20180;-63
2023/04/10 08:54:57;;;;;;;8.93;8.40;;;;;;;13.82;100.00;149512.25;5092262;28;20188;-64
2023/04/10 08:57:26;;;;;;;8.07;7.40;;;;;;;14.01;100.00;149560.41;5092239;28;20199;-63
2023/04/10 08:59:53;;;;;;;9.83;8.00;;;;;;;14.14;100.00;149593.34;5092153;28;20279;-63
2023/04/10 09:02:20;;;;;;;9.33;8.83;;;;;;;14.12;100.00;149588.31;5092338;28;20616;-63
2023/04/10 09:04:49;;;;;;;8.70;8.07;;;;;;;14.29;100.00;149628.88;5092420;28;20195;-64
2023/04/10 09:07:16;;;;;;;8.50;8.00;;;;;;;14.49;100.00;149679.63;5090756;28;20215;-63
2023/04/10 09:09:47;;;;;;;8.60;8.20;;;;;;;14.23;100.00;149613.63;5092669;28;20627;-63
2023/04/10 09:12:16;;;;;;;8.90;8.40;;;;;;;14.15;100.00;149595.91;5091895;28;20713;-63
2023/04/10 09:14:43;;;;;;;8.70;8.13;;;;;;;14.08;100.00;149578.19;5092575;28;20281;-62
2023/04/10 09:17:16;;;;;;;9.67;8.23;;;;;;;13.78;100.00;149502.13;5092211;28;20176;-63
2023/04/10 09:19:43;;;;;;;8.90;8.13;;;;;;;14.05;100.00;149569.25;5092401;28;20229;-62
2023/04/10 09:22:10;;;;;;;8.37;7.93;;;;;;;14.22;100.00;149612.34;5091861;28;20191;-63
2023/04/10 09:24:38;;;;;;;9.13;8.63;;;;;;;14.02;100.00;149561.66;5091944;28;20188;-63
2023/04/10 09:27:07;;;;;;;9.83;8.77;;;;;;;13.92;100.00;149537.56;5092356;28;20566;-63
2023/04/10 09:29:43;;;;;;;9.80;9.00;;;;;;;13.73;100.00;149489.44;5091571;28;20180;-62
2023/04/10 09:32:13;;;;;;;9.07;8.47;;;;;;;13.93;100.00;149538.84;5091754;28;20192;-64
2023/04/10 09:34:55;;;;;;;10.10;9.40;;;;;;;13.78;100.00;149500.84;5091748;28;20195;-63
2023/04/10 09:37:22;;;;;;;9.63;9.13;;;;;;;13.92;100.00;149537.56;5091845;28;20577;-63
2023/04/10 09:39:50;;;;;;;10.47;9.53;;;;;;;14.21;100.00;149609.88;5091812;28;20188;-64
2023/04/10 09:42:31;;;;;;;10.27;9.60;;;;;;;14.23;100.00;149614.91;5091973;28;20204;-63
2023/04/10 09:44:58;;;;;;;11.10;9.93;;;;;;;14.09;100.00;149580.69;5091809;28;20187;-63
2023/04/10 09:47:25;;;;;;;9.80;8.97;;;;;;;14.01;100.00;149560.41;5091488;28;20207;-64
2023/04/10 09:49:54;;;;;;;7.53;7.13;;;;;;;14.21;100.00;149608.59;5091824;28;20613;-63
2023/04/10 09:52:24;;;;;;;7.23;6.67;;;;;;;13.89;100.00;149529.97;5092246;28;20615;-63
2023/04/10 09:54:51;;;;;;;7.90;7.20;;;;;;;13.98;100.00;149551.53;5091626;28;20237;-63
2023/04/10 09:57:21;;;;;;;8.20;7.10;;;;;;;14.06;100.00;149571.81;5091714;28;20184;-63
2023/04/10 09:59:50;;;;;;;6.83;6.33;;;;;;;14.07;100.00;149575.63;5091687;28;20191;-62
2023/04/10 10:02:18;;;;;;;7.33;7.03;;;;;;;14.10;100.00;149583.22;5091565;28;20192;-62
2023/04/10 10:04:47;;;;;;;7.73;7.07;;;;;;;14.16;100.00;149597.19;5091720;28;20180;-63
2023/04/10 10:07:15;;;;;;;7.33;6.93;;;;;;;14.28;100.00;149626.31;5091388;28;20238;-62
2023/04/10 10:09:43;;;;;;;7.23;6.83;;;;;;;14.08;100.00;149576.91;5091903;28;20639;-62
2023/04/10 10:12:11;;;;;;;6.93;6.47;;;;;;;14.42;100.00;149661.88;5091322;28;20231;-64
2023/04/10 10:14:45;;;;;;;16.07;12.83;;;;;;;14.42;100.00;149661.88;5094003;28;20196;-61
2023/04/10 10:17:18;;;;;;;6.80;6.40;;;;;;;14.52;100.00;149688.50;5095408;28;20237;-62
2023/04/10 10:19:54;;;;;;;6.00;5.73;;;;;;;14.31;100.00;149635.19;5095766;28;20196;-67
2023/04/10 10:22:25;;;;;;;7.03;6.30;;;;;;;14.60;100.00;149707.50;5094077;28;20241;-62
2023/04/10 10:24:55;;;;;;;8.53;5.77;;;;;;;14.37;100.00;149650.47;5095048;28;20188;-63
2023/04/10 10:27:26;;;;;;;6.13;5.80;;;;;;;14.05;100.00;149570.53;5095368;28;20204;-62
2023/04/10 10:29:56;;;;;;;6.70;6.07;;;;;;;14.20;100.00;149607.31;5095644;28;20196;-62
2023/04/10 10:32:25;;;;;;;5.40;5.10;;;;;;;14.25;100.00;149618.72;5094399;28;20193;-62
2023/04/10 10:34:52;;;;;;;6.23;5.73;;;;;;;14.27;100.00;149625.06;5093967;28;20192;-61
2023/04/10 10:37:21;;;;;;;6.27;5.70;;;;;;;14.45;100.00;149670.75;5095486;28;20271;-63
2023/04/10 10:39:57;;;;;;;6.57;6.07;;;;;;;14.30;100.00;149632.63;5094934;28;20179;-63
2023/04/10 10:42:34;;;;;;;5.93;5.63;;;;;;;14.38;100.00;149653.03;5094983;28;20508;-63
2023/04/10 10:45:10;;;;;;;6.83;6.20;;;;;;;14.53;100.00;149689.75;5094896;28;20188;-61
2023/04/10 10:47:42;;;;;;;5.90;5.60;;;;;;;14.64;100.00;149717.63;5094300;28;20213;-60
2023/04/10 10:50:09;;;;;;;5.90;5.70;;;;;;;14.90;100.00;149783.59;5094043;28;20200;-61
2023/04/10 10:52:48;;;;;;;6.57;6.17;;;;;;;14.90;100.00;149783.59;5094525;28;20195;-61
2023/04/10 10:55:36;;;;;;;6.53;5.97;;;;;;;14.74;100.00;149743.00;5094367;28;20282;-62
2023/04/10 10:58:05;;;;;;;5.73;5.33;;;;;;;14.81;100.00;149760.75;5094531;28;20184;-62
2023/04/10 11:01:14;;;;;;;6.37;5.93;;;;;;;14.62;100.00;149713.88;5093785;28;20215;-61
2023/04/10 11:03:44;;;;;;;6.20;5.60;;;;;;;14.89;100.00;149781.09;5091650;28;20245;-61
2023/04/10 11:06:12;;;;;;;6.20;5.80;;;;;;;14.93;100.00;149791.22;5094586;28;20535;-62
2023/04/10 11:08:47;;;;;;;6.20;5.70;;;;;;;15.10;100.00;149833.09;5094457;28;20188;-62
2023/04/10 11:11:16;;;;;;;6.23;5.63;;;;;;;15.32;100.00;149887.66;5094438;28;20275;-62
2023/04/10 11:14:16;;;;;;;5.77;5.57;;;;;;;15.41;100.00;149910.44;5094333;28;20653;-63
2023/04/10 11:16:46;;;;;;;13.73;6.63;;;;;;;15.26;100.00;149872.41;5094391;28;20261;-63
2023/04/10 11:19:16;;;;;;;7.23;6.50;;;;;;;15.22;100.00;149862.25;5094030;28;20634;-62
2023/04/10 11:22:03;;;;;;;5.93;5.50;;;;;;;14.78;100.00;149753.16;5094009;28;20187;-62
2023/04/10 11:24:55;;;;;;;5.30;5.10;;;;;;;14.74;100.00;149741.75;5093931;28;20287;-62
2023/04/10 11:27:48;;;;;;;6.37;5.87;;;;;;;15.01;100.00;149810.25;5094036;28;20556;-62